Luderitz Diaz Point, Namibia
Current Conditions -  °F | °C
As of 1:00 PM on Thursday 27 Nov 2014 (Local Time) from FYWE Reporting Station
Few Clouds Few Clouds  
Wind Chill: 86°   Ceiling: Unl
Heat Index: 86°   Visibility: 6mi
Dew Point: 23°   Wind: 17mph
Humidity: 10%   Direction: 270°W
Pressure: 30.06"   Gusts: NA
Location:  26.63°S, 15.1°E
Report Text: FYWE 271200Z 27015KT 9999 FEW045 30/M05 Q1018
Loading
Personal Weather Stations






























Interactive Weather Map New forecast layout! Learn more

10-Day Weather Forecast

Advertisements
Track Severe Weather on mobile